Time;durP1;ratioP1;P1;durP2;ratioP2;P2;SDS_P1;SDS_P2;PMS_P1;PMS_P2;Temp;Humidity;BMP_temperature;BMP_pressure;BME280_temperature;BME280_humidity;BME280_pressure;Samples;Min_cycle;Max_cycle;Signal;HPM_P1;HPM_P2
2023/09/27 00:29:23;;;;;;;21.23;14.23;;;13.50;99.90;;;;;;4943403;29;20060;-89
2023/09/27 00:31:50;;;;;;;20.42;14.85;;;13.50;99.90;;;;;;4954801;29;20102;-89
2023/09/27 00:34:17;;;;;;;22.63;15.32;;;13.40;99.90;;;;;;4936215;29;20044;-89
2023/09/27 00:36:44;;;;;;;20.75;14.95;;;13.50;99.90;;;;;;4936453;29;20480;-89
2023/09/27 00:39:10;;;;;;;21.85;15.75;;;13.40;99.90;;;;;;4930701;29;20123;-89
2023/09/27 00:41:37;;;;;;;20.52;14.50;;;13.50;99.90;;;;;;4932971;29;20137;-89
2023/09/27 00:44:04;;;;;;;19.75;14.27;;;13.50;99.90;;;;;;4930600;29;20036;-89
2023/09/27 00:46:32;;;;;;;21.63;15.50;;;13.40;99.90;;;;;;4924521;29;20047;-89
2023/09/27 00:48:59;;;;;;;23.35;15.65;;;13.40;99.90;;;;;;4937642;29;20052;-89
2023/09/27 00:51:26;;;;;;;20.08;15.00;;;13.40;99.90;;;;;;4935799;29;20917;-89
2023/09/27 00:53:55;;;;;;;22.10;16.20;;;13.40;99.90;;;;;;4948792;29;20134;-89
2023/09/27 00:56:23;;;;;;;22.50;15.68;;;13.40;99.90;;;;;;4925880;29;20131;-89
2023/09/27 00:58:51;;;;;;;20.83;15.50;;;13.40;99.90;;;;;;4936232;29;20048;-89
2023/09/27 01:01:18;;;;;;;25.17;16.25;;;13.30;99.90;;;;;;4929830;29;20039;-89
2023/09/27 01:03:44;;;;;;;22.58;16.75;;;13.40;99.90;;;;;;4951383;29;20044;-89
2023/09/27 01:06:12;;;;;;;25.00;15.45;;;13.40;99.90;;;;;;4938993;29;20110;-89
2023/09/27 01:08:38;;;;;;;25.02;16.90;;;13.40;99.90;;;;;;4933772;29;20048;-88
2023/09/27 01:11:05;;;;;;;23.08;16.40;;;13.40;99.90;;;;;;4946648;29;20051;-88
2023/09/27 01:13:32;;;;;;;22.77;16.58;;;13.50;99.90;;;;;;4938434;29;20032;-89
2023/09/27 01:15:59;;;;;;;22.30;16.17;;;13.30;99.90;;;;;;4938716;29;20507;-89
2023/09/27 01:18:27;;;;;;;21.50;15.82;;;13.40;99.90;;;;;;4938494;29;20047;-89
2023/09/27 01:20:53;;;;;;;21.45;15.77;;;13.30;99.90;;;;;;4936474;29;20047;-89
2023/09/27 01:23:21;;;;;;;24.33;16.35;;;13.30;99.90;;;;;;4923538;29;20493;-88
2023/09/27 01:25:53;;;;;;;22.60;15.85;;;13.40;99.90;;;;;;4925542;29;20036;-88
2023/09/27 01:28:21;;;;;;;24.88;17.38;;;13.30;99.90;;;;;;4939371;29;20067;-89
2023/09/27 01:30:47;;;;;;;21.20;16.70;;;13.30;99.90;;;;;;4957412;29;20047;-89
2023/09/27 01:33:14;;;;;;;22.90;16.10;;;13.30;99.90;;;;;;4953331;29;20039;-89
2023/09/27 01:35:43;;;;;;;21.90;16.05;;;13.30;99.90;;;;;;4935159;29;20401;-88
2023/09/27 01:38:11;;;;;;;21.75;15.90;;;13.20;99.90;;;;;;4955167;29;20130;-89
2023/09/27 01:40:42;;;;;;;24.98;17.08;;;13.20;99.90;;;;;;4950233;29;20555;-89
2023/09/27 01:43:09;;;;;;;21.83;15.60;;;13.20;99.90;;;;;;4938463;29;20039;-89
2023/09/27 01:45:37;;;;;;;22.60;16.38;;;13.20;99.90;;;;;;4936867;29;20033;-89
2023/09/27 01:48:04;;;;;;;20.27;15.23;;;13.20;99.90;;;;;;4940097;29;20050;-89
2023/09/27 01:50:34;;;;;;;21.80;15.32;;;13.20;99.90;;;;;;4957924;29;20039;-88
2023/09/27 01:53:00;;;;;;;24.02;15.25;;;13.20;99.90;;;;;;4955367;29;20850;-88
2023/09/27 01:55:27;;;;;;;23.50;16.50;;;13.20;99.90;;;;;;4955647;29;20130;-88
2023/09/27 01:57:55;;;;;;;24.05;17.25;;;12.70;99.90;;;;;;4938319;29;20059;-89
2023/09/27 02:00:22;;;;;;;21.67;15.88;;;13.10;99.90;;;;;;4937993;29;20040;-89
2023/09/27 02:02:51;;;;;;;27.30;16.25;;;13.10;99.90;;;;;;4937895;29;20500;-89
2023/09/27 02:05:18;;;;;;;22.30;16.27;;;13.10;99.90;;;;;;4937639;29;20055;-89
2023/09/27 02:07:44;;;;;;;22.73;15.80;;;13.10;99.90;;;;;;4939016;29;20048;-89
2023/09/27 02:10:11;;;;;;;27.73;16.92;;;13.10;99.90;;;;;;4949402;29;20039;-89
2023/09/27 02:12:40;;;;;;;22.40;16.20;;;13.10;99.90;;;;;;4946737;29;20055;-89
2023/09/27 02:15:11;;;;;;;22.67;16.13;;;13.10;99.90;;;;;;4948496;29;20051;-89
2023/09/27 02:17:39;;;;;;;23.45;16.80;;;13.00;99.90;;;;;;4925646;29;20047;-89
2023/09/27 02:20:07;;;;;;;23.58;16.60;;;13.00;99.90;;;;;;4947627;29;20070;-89
2023/09/27 02:22:34;;;;;;;22.17;15.85;;;13.00;99.90;;;;;;4955992;29;20047;-89
2023/09/27 02:25:01;;;;;;;25.17;17.38;;;13.00;99.90;;;;;;4953403;29;20043;-89
2023/09/27 02:27:28;;;;;;;23.63;16.83;;;13.00;99.90;;;;;;4967366;29;20094;-89
2023/09/27 02:29:56;;;;;;;26.17;16.90;;;12.90;99.90;;;;;;4976046;28;20082;-89
2023/09/27 02:32:22;;;;;;;23.73;16.63;;;12.90;99.90;;;;;;4976318;28;20498;-89
2023/09/27 02:34:50;;;;;;;22.85;17.30;;;12.90;99.90;;;;;;4958913;29;20039;-89
2023/09/27 02:37:16;;;;;;;24.25;17.05;;;12.90;99.90;;;;;;4956950;29;20054;-89
2023/09/27 02:39:43;;;;;;;23.15;17.27;;;12.90;99.90;;;;;;4956874;29;20500;-89
2023/09/27 02:42:10;;;;;;;24.75;17.35;;;12.90;99.90;;;;;;4956860;28;20058;-89
2023/09/27 02:44:37;;;;;;;23.88;16.88;;;13.30;99.90;;;;;;4957042;29;20039;-89
2023/09/27 02:47:04;;;;;;;22.95;17.52;;;12.80;99.90;;;;;;4956610;28;20500;-89
2023/09/27 02:49:35;;;;;;;23.65;16.95;;;12.80;99.90;;;;;;4948034;29;20046;-88
2023/09/27 02:52:02;;;;;;;22.67;17.73;;;12.80;99.90;;;;;;4960536;29;20484;-89
2023/09/27 02:54:29;;;;;;;26.35;17.23;;;12.80;99.90;;;;;;4973059;29;20039;-89
2023/09/27 02:56:56;;;;;;;29.63;18.13;;;12.80;99.90;;;;;;4983364;28;20046;-89
2023/09/27 02:59:23;;;;;;;25.58;16.80;;;12.80;99.90;;;;;;4960435;29;20062;-89
2023/09/27 03:01:49;;;;;;;27.13;18.00;;;12.80;99.90;;;;;;4960234;29;20043;-89
2023/09/27 03:04:16;;;;;;;25.45;17.50;;;12.70;99.90;;;;;;4960303;29;20046;-89
2023/09/27 03:06:43;;;;;;;27.67;17.70;;;12.70;99.90;;;;;;4977843;28;20051;-89
2023/09/27 03:09:11;;;;;;;25.55;17.90;;;12.80;99.90;;;;;;4970896;29;20038;-89
2023/09/27 03:11:43;;;;;;;26.65;18.10;;;12.70;99.90;;;;;;4988748;28;20411;-89
2023/09/27 03:14:10;;;;;;;23.05;17.67;;;12.70;99.90;;;;;;4975733;29;20499;-88
2023/09/27 03:16:37;;;;;;;26.00;18.58;;;12.70;99.90;;;;;;4973068;29;20098;-89
2023/09/27 03:19:04;;;;;;;25.95;18.17;;;12.80;99.90;;;;;;4949347;29;20044;-89
2023/09/27 03:21:31;;;;;;;25.92;18.20;;;12.70;99.90;;;;;;4953768;28;20079;-89
2023/09/27 03:23:57;;;;;;;25.38;18.38;;;12.60;99.90;;;;;;4960340;29;20082;-88
2023/09/27 03:26:24;;;;;;;24.92;18.23;;;12.60;99.90;;;;;;4967083;28;20039;-89
2023/09/27 03:28:51;;;;;;;28.45;18.95;;;12.60;99.90;;;;;;4948439;29;20458;-89
2023/09/27 03:31:19;;;;;;;25.83;19.63;;;12.60;99.90;;;;;;4950180;29;20746;-88
2023/09/27 03:33:48;;;;;;;23.60;17.70;;;12.60;99.90;;;;;;4961471;29;20070;-88
2023/09/27 03:36:15;;;;;;;25.33;18.60;;;12.60;99.90;;;;;;4940438;29;20040;-89
2023/09/27 03:38:42;;;;;;;25.42;19.17;;;12.60;99.90;;;;;;4956335;29;20122;-89
2023/09/27 03:41:09;;;;;;;26.95;18.40;;;12.50;99.90;;;;;;4956134;29;20047;-89
2023/09/27 03:43:36;;;;;;;28.73;18.88;;;13.10;99.90;;;;;;4956048;29;20039;-89
2023/09/27 03:46:06;;;;;;;27.92;19.45;;;12.50;99.90;;;;;;4940308;29;20126;-89
2023/09/27 03:48:33;;;;;;;31.40;19.75;;;12.50;99.90;;;;;;4955626;29;20036;-89
2023/09/27 03:51:00;;;;;;;26.42;19.58;;;12.50;99.90;;;;;;4936970;29;20040;-89
2023/09/27 03:53:27;;;;;;;28.25;19.60;;;12.50;99.90;;;;;;4948325;29;20118;-89
2023/09/27 03:55:54;;;;;;;29.83;20.08;;;12.40;99.90;;;;;;4937314;29;20504;-88
2023/09/27 03:58:21;;;;;;;30.73;21.27;;;12.50;99.90;;;;;;4945319;29;20044;-89
2023/09/27 04:00:47;;;;;;;26.73;20.73;;;12.50;99.90;;;;;;4948700;29;20465;-89
2023/09/27 04:03:15;;;;;;;26.27;19.48;;;12.40;99.90;;;;;;4956880;29;20042;-88
2023/09/27 04:05:42;;;;;;;28.17;20.00;;;12.40;99.90;;;;;;4940411;29;20043;-89
2023/09/27 04:08:11;;;;;;;28.73;19.75;;;12.50;99.90;;;;;;4952444;29;20047;-89
2023/09/27 04:10:38;;;;;;;29.55;20.35;;;12.80;99.90;;;;;;4944150;29;20040;-88
2023/09/27 04:13:05;;;;;;;26.40;19.90;;;12.40;99.90;;;;;;4955324;29;20086;-89
2023/09/27 04:15:35;;;;;;;27.80;20.02;;;12.40;99.90;;;;;;4940001;29;20078;-88
2023/09/27 04:18:03;;;;;;;27.13;19.60;;;12.40;99.90;;;;;;4952433;29;20079;-88
2023/09/27 04:20:29;;;;;;;30.20;20.30;;;12.40;99.90;;;;;;4945703;29;20477;-89
2023/09/27 04:22:56;;;;;;;29.70;20.75;;;12.30;99.90;;;;;;4943950;29;20079;-88
2023/09/27 04:25:23;;;;;;;29.65;20.42;;;12.40;99.90;;;;;;4942225;29;20039;-88
2023/09/27 04:27:49;;;;;;;27.70;20.88;;;12.30;99.90;;;;;;4959259;29;20055;-89
2023/09/27 04:30:19;;;;;;;27.85;19.98;;;12.40;99.90;;;;;;4977207;28;20038;-88
2023/09/27 04:32:47;;;;;;;27.25;19.90;;;12.30;99.90;;;;;;4964469;29;20040;-89
2023/09/27 04:35:14;;;;;;;28.17;20.45;;;12.30;99.90;;;;;;4954715;28;20146;-88
2023/09/27 04:37:41;;;;;;;27.05;19.88;;;12.30;99.90;;;;;;4976059;28;20042;-88
2023/09/27 04:40:11;;;;;;;31.80;20.40;;;12.30;99.90;;;;;;4958511;29;20046;-88
2023/09/27 04:42:39;;;;;;;31.42;20.73;;;12.30;99.90;;;;;;4960814;28;20504;-88
2023/09/27 04:45:06;;;;;;;26.15;19.70;;;12.30;99.90;;;;;;4969199;28;20043;-88
2023/09/27 04:47:33;;;;;;;29.80;20.85;;;12.20;99.90;;;;;;4980173;28;20039;-88
2023/09/27 04:49:59;;;;;;;28.90;20.33;;;12.30;99.90;;;;;;4977596;28;20534;-88
2023/09/27 04:52:26;;;;;;;28.58;21.13;;;12.30;99.90;;;;;;4993196;28;20166;-88
2023/09/27 04:54:56;;;;;;;29.10;20.52;;;12.20;99.90;;;;;;4977167;28;20070;-88
2023/09/27 04:57:26;;;;;;;26.25;20.40;;;12.30;99.90;;;;;;4964587;28;20070;-88
2023/09/27 04:59:53;;;;;;;27.60;20.00;;;12.30;99.90;;;;;;4977037;28;20047;-88
2023/09/27 05:02:20;;;;;;;29.23;20.35;;;12.20;99.90;;;;;;4953117;29;20036;-88
2023/09/27 05:04:47;;;;;;;30.80;19.48;;;12.20;99.90;;;;;;4967895;29;20075;-88
2023/09/27 05:07:19;;;;;;;30.08;19.88;;;12.30;99.90;;;;;;4979579;28;20462;-88
2023/09/27 05:09:46;;;;;;;30.10;20.58;;;12.20;99.90;;;;;;4963402;29;20403;-88
2023/09/27 05:12:13;;;;;;;29.52;18.92;;;12.20;99.90;;;;;;4956760;29;20050;-88
2023/09/27 05:14:41;;;;;;;29.63;20.98;;;12.20;99.90;;;;;;4985713;28;20484;-88
2023/09/27 05:17:09;;;;;;;29.92;20.70;;;12.20;99.90;;;;;;4974011;29;20046;-88
2023/09/27 05:19:36;;;;;;;28.77;21.27;;;12.20;99.90;;;;;;4972275;28;20130;-88
2023/09/27 05:22:03;;;;;;;31.80;21.45;;;12.20;99.90;;;;;;4976339;28;20102;-87
2023/09/27 05:24:32;;;;;;;27.58;20.80;;;12.20;99.90;;;;;;4976260;28;20069;-88
2023/09/27 05:27:03;;;;;;;28.13;20.67;;;12.20;99.90;;;;;;4957358;29;20043;-87
2023/09/27 05:29:30;;;;;;;28.65;20.27;;;12.10;99.90;;;;;;4956665;29;20043;-88
2023/09/27 05:31:57;;;;;;;29.33;20.60;;;12.10;99.90;;;;;;4957296;29;20036;-88
2023/09/27 05:34:23;;;;;;;29.05;21.15;;;12.20;99.90;;;;;;4970479;28;20066;-88
2023/09/27 05:36:50;;;;;;;35.50;22.67;;;12.20;99.90;;;;;;4968826;29;20047;-88
2023/09/27 05:39:17;;;;;;;33.10;22.70;;;12.30;99.90;;;;;;4969931;28;20070;-88
2023/09/27 05:41:43;;;;;;;32.00;22.58;;;12.30;99.90;;;;;;4956860;29;20051;-88
2023/09/27 05:44:10;;;;;;;31.50;22.13;;;12.30;99.90;;;;;;4973614;28;20050;-88
2023/09/27 05:46:39;;;;;;;35.45;23.45;;;12.30;99.90;;;;;;4983434;29;20043;-87
2023/09/27 05:49:09;;;;;;;30.15;21.77;;;12.30;99.90;;;;;;4969277;29;20409;-88
2023/09/27 05:51:35;;;;;;;32.70;22.88;;;12.40;99.90;;;;;;4982757;28;20049;-88
2023/09/27 05:54:02;;;;;;;32.80;22.27;;;12.40;99.90;;;;;;4963122;28;20038;-88
2023/09/27 05:56:29;;;;;;;33.00;24.45;;;12.50;99.90;;;;;;4976331;28;20043;-88
2023/09/27 05:58:59;;;;;;;38.47;24.13;;;12.60;99.90;;;;;;4965580;28;20410;-88
2023/09/27 06:01:26;;;;;;;34.13;24.08;;;12.60;99.90;;;;;;4974051;28;20043;-88
2023/09/27 06:03:52;;;;;;;39.75;24.20;;;13.20;99.90;;;;;;4973790;29;20078;-88
2023/09/27 06:06:19;;;;;;;34.90;24.08;;;12.70;99.90;;;;;;4953572;28;20075;-88
2023/09/27 06:08:46;;;;;;;35.58;23.67;;;12.80;99.90;;;;;;4967649;29;20039;-89
2023/09/27 06:11:13;;;;;;;35.78;24.05;;;12.80;99.90;;;;;;4974135;28;20035;-88
2023/09/27 06:13:39;;;;;;;36.03;24.45;;;12.90;99.90;;;;;;4975764;28;20045;-88
2023/09/27 06:16:14;;;;;;;35.40;24.25;;;13.00;99.90;;;;;;4975911;28;20074;-89
2023/09/27 06:18:40;;;;;;;33.00;24.17;;;13.00;99.90;;;;;;4961637;29;20044;-88
2023/09/27 06:21:07;;;;;;;33.30;23.65;;;13.10;99.90;;;;;;4955671;28;20082;-89
2023/09/27 06:23:35;;;;;;;33.63;24.27;;;13.10;99.90;;;;;;4976854;28;20049;-89
2023/09/27 06:26:02;;;;;;;34.70;24.13;;;13.10;99.90;;;;;;4967470;28;20039;-89
2023/09/27 06:28:29;;;;;;;39.00;24.10;;;13.20;99.90;;;;;;4965391;28;20082;-89
2023/09/27 06:30:56;;;;;;;32.83;22.65;;;13.20;99.90;;;;;;4957352;29;20082;-89
2023/09/27 06:33:22;;;;;;;34.13;24.25;;;13.20;99.90;;;;;;4955750;29;20448;-89
2023/09/27 06:35:49;;;;;;;33.22;24.55;;;13.20;99.90;;;;;;4962390;28;20399;-89
2023/09/27 06:38:19;;;;;;;37.15;23.67;;;13.30;99.90;;;;;;4966879;28;20515;-90
2023/09/27 06:40:46;;;;;;;35.20;23.00;;;13.30;99.90;;;;;;4967390;28;20071;-88
2023/09/27 06:43:14;;;;;;;34.03;24.77;;;13.40;99.90;;;;;;4979413;28;20039;-89
2023/09/27 06:45:41;;;;;;;36.70;24.67;;;13.40;99.90;;;;;;4978727;28;20045;-89
2023/09/27 06:48:07;;;;;;;42.25;25.48;;;13.40;99.90;;;;;;4964285;29;20488;-89
2023/09/27 06:50:34;;;;;;;33.88;23.52;;;13.40;99.90;;;;;;4972418;28;20039;-89
2023/09/27 06:53:01;;;;;;;31.92;23.58;;;13.50;99.90;;;;;;4960296;29;20491;-88
2023/09/27 06:55:27;;;;;;;33.72;23.77;;;13.50;99.90;;;;;;4969955;28;20049;-89
2023/09/27 06:57:54;;;;;;;33.97;24.15;;;13.50;99.90;;;;;;4978308;28;20530;-88
2023/09/27 07:00:24;;;;;;;33.25;23.75;;;13.50;99.90;;;;;;4959642;29;20062;-88
2023/09/27 07:02:52;;;;;;;32.22;22.80;;;13.40;99.90;;;;;;4961126;29;20062;-88
2023/09/27 07:05:23;;;;;;;35.25;23.40;;;13.60;99.90;;;;;;4941821;28;20103;-88
2023/09/27 07:07:50;;;;;;;31.42;23.10;;;13.60;99.90;;;;;;4972671;29;20123;-88
2023/09/27 07:10:17;;;;;;;36.22;23.38;;;13.70;99.90;;;;;;4970792;29;20050;-88
2023/09/27 07:12:44;;;;;;;32.22;22.98;;;13.70;99.90;;;;;;4968846;28;20042;-88
2023/09/27 07:15:14;;;;;;;34.38;23.70;;;13.80;99.90;;;;;;4976084;28;20066;-88
2023/09/27 07:17:43;;;;;;;34.35;22.92;;;13.80;99.90;;;;;;4966892;28;20046;-88
2023/09/27 07:20:20;;;;;;;30.70;23.13;;;13.90;99.90;;;;;;4962545;28;20043;-88
2023/09/27 07:22:47;;;;;;;36.00;23.85;;;14.10;99.90;;;;;;4968054;29;20046;-89
2023/09/27 07:25:18;;;;;;;36.05;24.90;;;14.10;99.90;;;;;;4976947;28;20043;-89
2023/09/27 07:27:46;;;;;;;35.58;23.25;;;14.20;99.90;;;;;;4994477;28;20126;-88
2023/09/27 07:30:17;;;;;;;33.95;24.35;;;14.20;99.90;;;;;;4978732;28;20041;-88
2023/09/27 07:32:45;;;;;;;33.90;23.10;;;14.30;99.90;;;;;;4977101;28;20038;-88
2023/09/27 07:35:14;;;;;;;33.33;23.85;;;14.40;99.90;;;;;;4958638;29;20050;-88
2023/09/27 07:37:41;;;;;;;35.28;23.88;;;14.40;99.90;;;;;;4965063;29;20040;-89
2023/09/27 07:40:10;;;;;;;33.97;23.27;;;14.40;99.90;;;;;;4958998;29;20047;-89
2023/09/27 07:42:39;;;;;;;33.33;23.60;;;14.50;99.90;;;;;;4975211;29;20101;-89
2023/09/27 07:45:15;;;;;;;34.45;23.60;;;14.60;99.90;;;;;;4975051;29;20122;-89
2023/09/27 07:47:42;;;;;;;30.65;23.35;;;14.70;99.90;;;;;;4973626;28;20039;-88
2023/09/27 07:50:10;;;;;;;32.35;22.55;;;14.80;99.90;;;;;;4953603;29;20045;-88
2023/09/27 07:52:37;;;;;;;31.70;22.73;;;14.80;99.90;;;;;;4968068;28;20494;-88
2023/09/27 07:55:04;;;;;;;31.83;22.48;;;14.80;99.90;;;;;;4958929;29;20128;-88
2023/09/27 07:57:31;;;;;;;32.63;22.23;;;14.90;99.90;;;;;;4996699;28;20047;-88
2023/09/27 07:59:58;;;;;;;31.20;22.55;;;15.00;99.90;;;;;;4963167;28;20034;-88
2023/09/27 08:02:26;;;;;;;32.55;22.55;;;15.00;99.90;;;;;;4966703;29;20079;-88
2023/09/27 08:04:52;;;;;;;32.08;21.90;;;15.10;99.90;;;;;;4958919;29;20054;-88
2023/09/27 08:07:19;;;;;;;31.17;21.95;;;15.10;99.90;;;;;;4958264;29;20035;-88
2023/09/27 08:09:45;;;;;;;31.25;21.98;;;15.20;99.90;;;;;;4971280;29;20090;-87
2023/09/27 08:12:13;;;;;;;33.53;23.25;;;15.20;99.90;;;;;;4970425;28;20043;-87
2023/09/27 08:14:39;;;;;;;34.90;22.77;;;15.30;99.90;;;;;;4959156;29;20039;-87
2023/09/27 08:17:06;;;;;;;31.00;22.50;;;15.30;99.90;;;;;;4956901;28;20134;-88
2023/09/27 08:19:33;;;;;;;34.70;21.88;;;15.40;99.90;;;;;;4943722;29;20040;-87
2023/09/27 08:22:00;;;;;;;30.67;22.38;;;15.40;99.90;;;;;;4943021;29;20094;-88
2023/09/27 08:24:27;;;;;;;30.73;23.40;;;15.40;99.90;;;;;;4958218;29;20049;-87
2023/09/27 08:26:53;;;;;;;27.90;21.55;;;15.40;99.90;;;;;;4965766;28;20038;-87
2023/09/27 08:29:21;;;;;;;32.78;22.33;;;15.40;99.90;;;;;;4980897;29;20059;-88
2023/09/27 08:31:48;;;;;;;31.00;22.75;;;15.50;99.90;;;;;;4960915;28;20047;-90
2023/09/27 08:34:14;;;;;;;31.67;22.80;;;15.50;99.90;;;;;;4969093;28;20038;-90
2023/09/27 08:36:41;;;;;;;30.98;23.45;;;15.60;99.90;;;;;;4961231;29;20125;-92
2023/09/27 08:39:09;;;;;;;33.72;23.33;;;15.60;99.90;;;;;;4968540;28;20522;-91
2023/09/27 08:41:38;;;;;;;28.60;22.08;;;15.80;99.90;;;;;;4973102;29;20416;-94
2023/09/27 08:44:08;;;;;;;33.45;22.98;;;16.00;99.90;;;;;;4958265;29;20039;-90
2023/09/27 08:46:36;;;;;;;30.30;21.77;;;16.10;99.90;;;;;;4963990;29;20070;-92
2023/09/27 08:49:04;;;;;;;35.67;22.48;;;16.20;99.90;;;;;;4957870;29;20428;-90
2023/09/27 08:51:31;;;;;;;30.27;21.05;;;16.30;99.90;;;;;;4973754;29;20043;-90
2023/09/27 08:53:58;;;;;;;31.10;20.95;;;16.50;99.90;;;;;;4958203;29;20046;-90
2023/09/27 08:56:27;;;;;;;33.63;22.08;;;16.70;99.90;;;;;;4970470;28;20042;-90
2023/09/27 08:58:55;;;;;;;29.10;20.58;;;16.80;99.90;;;;;;4965864;29;20055;-90
2023/09/27 09:01:22;;;;;;;33.10;21.77;;;16.90;99.90;;;;;;4984255;29;20043;-91
2023/09/27 09:03:50;;;;;;;36.75;21.75;;;17.10;99.90;;;;;;4965332;29;20044;-90
2023/09/27 09:06:18;;;;;;;28.75;20.65;;;17.20;99.90;;;;;;4942032;29;20114;-90
2023/09/27 09:08:46;;;;;;;28.73;20.27;;;17.40;99.90;;;;;;4955802;29;20046;-90
2023/09/27 09:11:18;;;;;;;26.05;20.20;;;17.50;99.90;;;;;;4957709;29;20070;-90
2023/09/27 09:14:04;;;;;;;30.45;20.63;;;17.50;99.90;;;;;;4957591;29;20123;-90
2023/09/27 09:16:47;;;;;;;27.52;19.25;;;17.60;99.90;;;;;;4973971;28;20038;-92
2023/09/27 09:19:25;;;;;;;25.45;19.67;;;17.80;99.90;;;;;;4966446;29;20126;-90
2023/09/27 09:21:56;;;;;;;32.38;19.45;;;17.90;99.90;;;;;;4944696;29;20058;-92
2023/09/27 09:24:23;;;;;;;27.05;18.60;;;17.90;99.90;;;;;;4938991;29;20055;-91
2023/09/27 09:27:13;;;;;;;25.60;18.98;;;17.80;99.90;;;;;;4972641;29;20047;-92
2023/09/27 09:29:47;;;;;;;28.35;19.02;;;18.00;99.90;;;;;;4962637;29;20579;-90
2023/09/27 09:32:15;;;;;;;25.50;18.92;;;18.00;99.90;;;;;;4951394;29;20043;-92
2023/09/27 09:34:44;;;;;;;25.50;19.02;;;18.10;99.90;;;;;;4948570;28;20122;-90
2023/09/27 09:37:21;;;;;;;30.42;18.83;;;18.20;99.90;;;;;;4961450;29;20134;-92
2023/09/27 09:39:50;;;;;;;27.95;19.05;;;18.30;99.90;;;;;;4970574;28;20046;-90
2023/09/27 09:42:33;;;;;;;32.72;18.65;;;18.30;99.90;;;;;;4956946;28;20129;-91
2023/09/27 09:45:05;;;;;;;24.63;18.30;;;18.30;99.90;;;;;;4973310;29;20519;-91
2023/09/27 09:47:35;;;;;;;26.02;17.67;;;18.30;99.90;;;;;;4979993;29;20082;-89
2023/09/27 09:50:08;;;;;;;23.67;18.00;;;18.30;99.90;;;;;;4956349;29;20048;-89
2023/09/27 09:52:39;;;;;;;23.90;17.65;;;18.40;99.90;;;;;;4950313;29;20178;-91
2023/09/27 09:55:08;;;;;;;27.90;17.23;;;18.40;99.90;;;;;;4955658;29;20050;-90
2023/09/27 09:57:36;;;;;;;22.23;17.10;;;18.40;99.90;;;;;;4951133;29;20063;-91
2023/09/27 10:00:16;;;;;;;23.92;17.30;;;18.40;99.90;;;;;;4971347;28;20111;-93
2023/09/27 10:02:52;;;;;;;25.85;16.77;;;18.40;99.90;;;;;;4963559;29;20050;-90
2023/09/27 10:05:23;;;;;;;21.92;16.88;;;18.40;99.90;;;;;;4956725;29;20137;-92
2023/09/27 10:07:51;;;;;;;27.95;17.05;;;18.50;99.90;;;;;;4955605;29;20042;-93
2023/09/27 10:10:18;;;;;;;23.98;17.80;;;18.50;99.90;;;;;;4951726;29;20119;-91
2023/09/27 10:12:49;;;;;;;23.05;16.98;;;18.60;99.90;;;;;;4959222;29;20039;-94
2023/09/27 10:15:18;;;;;;;22.73;17.42;;;18.70;99.90;;;;;;4956877;29;20090;-90
2023/09/27 10:17:45;;;;;;;26.00;18.30;;;18.70;99.90;;;;;;4973049;28;20472;-88
2023/09/27 10:20:20;;;;;;;22.58;16.88;;;18.80;99.90;;;;;;4968043;29;20133;-89
2023/09/27 10:22:48;;;;;;;24.00;17.33;;;18.80;99.90;;;;;;4966231;28;20097;-89
2023/09/27 10:25:24;;;;;;;25.30;17.55;;;18.90;99.90;;;;;;4967364;29;20099;-88
2023/09/27 10:28:04;;;;;;;23.55;16.17;;;18.90;99.90;;;;;;4955036;28;20050;-88
2023/09/27 10:30:40;;;;;;;26.02;16.42;;;19.10;99.90;;;;;;4963299;28;20130;-88
2023/09/27 10:33:16;;;;;;;22.90;14.82;;;19.30;99.90;;;;;;4951398;29;20909;-89
2023/09/27 10:36:06;;;;;;;21.27;15.27;;;19.60;99.90;;;;;;4953114;29;20067;-88
2023/09/27 10:38:52;;;;;;;18.77;12.73;;;19.70;99.90;;;;;;4978624;28;20053;-88
2023/09/27 10:41:38;;;;;;;18.27;12.32;;;19.80;99.90;;;;;;4972800;29;20043;-89
2023/09/27 10:44:05;;;;;;;17.25;11.88;;;19.90;99.90;;;;;;4956289;28;20039;-88
2023/09/27 10:46:47;;;;;;;18.55;12.93;;;20.00;99.90;;;;;;4958486;29;20050;-88
2023/09/27 10:49:27;;;;;;;21.70;12.60;;;20.10;99.90;;;;;;4968025;29;20043;-87
2023/09/27 10:51:54;;;;;;;17.58;12.73;;;20.20;99.90;;;;;;4974678;28;20046;-87
2023/09/27 10:54:26;;;;;;;16.15;12.52;;;20.20;99.90;;;;;;4964286;29;20046;-88
2023/09/27 10:56:53;;;;;;;19.83;12.73;;;20.20;99.90;;;;;;5003021;28;20035;-90
2023/09/27 10:59:24;;;;;;;17.55;11.70;;;20.30;99.90;;;;;;4963203;28;20411;-90
2023/09/27 11:01:51;;;;;;;19.08;13.52;;;20.30;99.90;;;;;;4959594;28;20040;-89
2023/09/27 11:04:23;;;;;;;17.33;12.10;;;20.30;99.90;;;;;;4974960;28;20733;-88
2023/09/27 11:06:50;;;;;;;19.38;13.05;;;20.30;99.90;;;;;;4969424;28;20040;-88
2023/09/27 11:09:20;;;;;;;17.00;12.30;;;20.40;99.90;;;;;;4984613;28;20035;-88
2023/09/27 11:11:48;;;;;;;20.77;13.90;;;20.40;99.90;;;;;;4993411;28;20069;-88
2023/09/27 11:14:32;;;;;;;18.00;13.60;;;20.40;99.90;;;;;;4971346;28;20038;-88
2023/09/27 11:17:25;;;;;;;20.15;13.45;;;20.40;99.90;;;;;;4978513;28;20042;-89
2023/09/27 11:19:52;;;;;;;20.35;13.50;;;20.40;99.90;;;;;;4969820;29;20820;-89
2023/09/27 11:22:27;;;;;;;19.65;12.90;;;20.60;99.90;;;;;;4959113;29;20047;-88
2023/09/27 11:24:54;;;;;;;17.33;12.53;;;20.70;99.90;;;;;;4971314;28;20045;-89
2023/09/27 11:27:21;;;;;;;20.35;12.32;;;20.80;99.90;;;;;;4979356;28;20050;-89
2023/09/27 11:29:54;;;;;;;16.95;12.73;;;21.00;99.90;;;;;;4957874;29;20440;-89
2023/09/27 11:32:21;;;;;;;16.88;11.88;;;21.10;99.90;;;;;;4958739;29;20098;-89
2023/09/27 11:34:58;;;;;;;16.50;12.65;;;21.20;99.90;;;;;;4959440;29;20043;-90
2023/09/27 11:37:25;;;;;;;18.80;12.27;;;21.10;99.90;;;;;;4993191;28;20042;-90
2023/09/27 11:39:54;;;;;;;19.15;12.57;;;21.20;99.90;;;;;;4966310;29;20047;-90
2023/09/27 11:42:22;;;;;;;16.23;12.48;;;21.20;99.90;;;;;;4976474;28;20518;-90
2023/09/27 11:45:04;;;;;;;17.40;11.77;;;21.20;99.90;;;;;;4975551;28;20043;-90
2023/09/27 11:47:32;;;;;;;18.63;11.50;;;21.30;99.90;;;;;;4978173;28;20743;-90
2023/09/27 11:49:58;;;;;;;19.23;11.20;;;21.40;99.90;;;;;;4966496;29;20071;-90
2023/09/27 11:52:25;;;;;;;14.95;10.13;;;21.50;99.90;;;;;;4960932;29;20111;-90
2023/09/27 11:54:53;;;;;;;14.98;10.05;;;21.60;99.90;;;;;;4976694;29;20047;-90
2023/09/27 11:57:19;;;;;;;17.40;9.55;;;21.60;99.90;;;;;;4973669;28;20050;-90
2023/09/27 11:59:46;;;;;;;13.57;8.68;;;21.50;99.90;;;;;;4947021;29;20043;-90
2023/09/27 12:02:18;;;;;;;18.08;9.95;;;21.50;99.90;;;;;;4950375;28;20077;-90
2023/09/27 12:04:45;;;;;;;14.15;9.18;;;21.50;99.90;;;;;;4977877;28;20046;-90
2023/09/27 12:07:12;;;;;;;12.38;9.18;;;21.50;99.90;;;;;;4964334;28;20550;-90
2023/09/27 12:09:39;;;;;;;12.80;8.88;;;21.50;99.90;;;;;;4954318;28;20764;-90
2023/09/27 12:12:06;;;;;;;15.73;9.32;;;21.50;99.90;;;;;;4953904;28;20032;-90
2023/09/27 12:14:33;;;;;;;15.27;8.98;;;21.40;99.90;;;;;;4952838;29;20111;-90
2023/09/27 12:16:59;;;;;;;14.38;8.52;;;21.40;99.90;;;;;;4958457;28;20444;-90
2023/09/27 12:19:26;;;;;;;11.20;7.68;;;21.30;99.90;;;;;;4967139;29;20109;-90
2023/09/27 12:21:53;;;;;;;17.85;8.52;;;21.30;99.90;;;;;;4969811;29;20040;-90
2023/09/27 12:24:19;;;;;;;11.68;7.57;;;21.20;99.90;;;;;;4955716;29;20135;-90
2023/09/27 12:26:46;;;;;;;13.13;8.98;;;21.20;99.90;;;;;;4943634;29;20044;-90
2023/09/27 12:29:13;;;;;;;15.38;8.73;;;21.20;99.90;;;;;;4950566;28;20084;-90
2023/09/27 12:31:40;;;;;;;12.38;8.35;;;21.10;99.90;;;;;;4944929;29;20047;-90
2023/09/27 12:34:07;;;;;;;16.50;7.88;;;21.00;99.90;;;;;;4970962;28;20042;-90
2023/09/27 12:36:34;;;;;;;11.60;8.05;;;21.00;99.90;;;;;;4955176;29;20052;-90
2023/09/27 12:39:02;;;;;;;12.50;8.30;;;21.10;99.90;;;;;;4958269;28;20038;-90
2023/09/27 12:41:29;;;;;;;16.35;8.68;;;21.20;99.90;;;;;;4958167;29;20039;-90
2023/09/27 12:43:56;;;;;;;11.77;8.45;;;21.30;99.90;;;;;;4987742;28;20116;-90
2023/09/27 12:46:23;;;;;;;12.23;8.57;;;21.30;99.90;;;;;;4938427;29;20044;-90
2023/09/27 12:48:50;;;;;;;15.00;8.90;;;21.30;99.90;;;;;;4940215;29;20047;-89
2023/09/27 12:51:16;;;;;;;14.40;9.10;;;21.30;99.90;;;;;;4954868;28;20038;-90
2023/09/27 12:53:45;;;;;;;13.88;8.43;;;21.30;99.90;;;;;;4976604;28;20125;-90
2023/09/27 12:56:12;;;;;;;12.00;8.23;;;21.30;99.90;;;;;;4954647;29;20044;-90
2023/09/27 12:58:42;;;;;;;13.30;8.98;;;21.30;99.90;;;;;;4968285;29;20129;-93
2023/09/27 13:01:15;;;;;;;14.35;8.32;;;21.30;99.90;;;;;;4956256;29;20043;-91
2023/09/27 13:03:42;;;;;;;14.93;8.77;;;21.30;99.90;;;;;;4967202;29;20047;-89